Time,TemperatureF,DewpointF,PressureIn,WindDirection,WindDirectionDegrees,WindSpeedMPH,WindSpeedGustMPH,Humidity,HourlyPrecipIn,Conditions,Clouds,dailyrainin,SolarRadiationWatts/m^2,SoftwareType,DateUTC
2013-02-13 00:06:00,45.8,28.0,30.57,WNW,283,0.0,-999.0,51,-99.99,,,0.00,0,weatherlink.com 1.10,2013-02-13 08:06:00,
2013-02-13 00:21:00,46.1,28.0,30.56,WNW,283,0.0,-999.0,49,-99.99,,,0.00,0,weatherlink.com 1.10,2013-02-13 08:21:00,
2013-02-13 00:36:00,46.9,27.0,30.56,WNW,283,0.0,-999.0,47,-99.99,,,0.00,0,weatherlink.com 1.10,2013-02-13 08:36:00,
2013-02-13 00:51:00,47.2,28.0,30.56,WNW,283,0.0,-999.0,47,-99.99,,,0.00,0,weatherlink.com 1.10,2013-02-13 08:51:00,
2013-02-13 01:06:00,46.9,27.0,30.55,WNW,283,0.0,-999.0,47,-99.99,,,0.00,0,weatherlink.com 1.10,2013-02-13 09:06:00,
2013-02-13 01:21:00,46.7,28.0,30.55,WNW,283,0.0,-999.0,48,-99.99,,,0.00,0,weatherlink.com 1.10,2013-02-13 09:21:00,
2013-02-13 01:36:00,46.2,28.0,30.55,WNW,283,0.0,-999.0,49,-99.99,,,0.00,0,weatherlink.com 1.10,2013-02-13 09:36:00,
2013-02-13 01:51:00,45.2,27.0,30.55,WNW,283,0.0,-999.0,50,-99.99,,,0.00,0,weatherlink.com 1.10,2013-02-13 09:51:00,
2013-02-13 02:06:00,44.6,27.0,30.54,WNW,283,0.0,-999.0,51,-99.99,,,0.00,0,weatherlink.com 1.10,2013-02-13 10:06:00,
2013-02-13 02:21:00,44.0,28.0,30.54,WNW,283,0.0,-999.0,53,-99.99,,,0.00,0,weatherlink.com 1.10,2013-02-13 10:21:00,
2013-02-13 02:36:00,43.7,27.0,30.53,WNW,283,0.0,-999.0,53,-99.99,,,0.00,0,weatherlink.com 1.10,2013-02-13 10:36:00,
2013-02-13 02:51:00,43.6,27.0,30.52,WNW,283,0.0,-999.0,53,-99.99,,,0.00,0,weatherlink.com 1.10,2013-02-13 10:51:00,
2013-02-13 03:06:00,43.3,27.0,30.52,WNW,283,0.0,-999.0,54,-99.99,,,0.00,0,weatherlink.com 1.10,2013-02-13 11:06:00,
2013-02-13 03:21:00,42.8,28.0,30.53,WNW,283,0.0,-999.0,56,-99.99,,,0.00,0,weatherlink.com 1.10,2013-02-13 11:21:00,
2013-02-13 03:36:00,42.5,28.0,30.53,WNW,283,0.0,-999.0,56,-99.99,,,0.00,0,weatherlink.com 1.10,2013-02-13 11:36:00,
2013-02-13 03:51:00,42.7,28.0,30.53,WNW,283,0.0,-999.0,56,-99.99,,,0.00,0,weatherlink.com 1.10,2013-02-13 11:51:00,
2013-02-13 04:06:00,42.7,27.0,30.53,WNW,283,0.0,-999.0,54,-99.99,,,0.00,0,weatherlink.com 1.10,2013-02-13 12:06:00,
2013-02-13 04:21:00,42.7,27.0,30.52,WNW,283,0.0,-999.0,55,-99.99,,,0.00,0,weatherlink.com 1.10,2013-02-13 12:21:00,
2013-02-13 04:36:00,42.8,27.0,30.52,WNW,283,0.0,-999.0,54,-99.99,,,0.00,0,weatherlink.com 1.10,2013-02-13 12:36:00,
2013-02-13 04:51:00,43.1,26.0,30.53,WNW,283,0.0,-999.0,52,-99.99,,,0.00,0,weatherlink.com 1.10,2013-02-13 12:51:00,
2013-02-13 05:06:00,42.9,27.0,30.52,WNW,283,0.0,-999.0,53,-99.99,,,0.00,0,weatherlink.com 1.10,2013-02-13 13:06:00,
2013-02-13 05:21:00,43.2,27.0,30.52,WNW,283,0.0,-999.0,53,-99.99,,,0.00,0,weatherlink.com 1.10,2013-02-13 13:21:00,
2013-02-13 05:36:00,43.4,27.0,30.53,WNW,283,0.0,-999.0,52,-99.99,,,0.00,0,weatherlink.com 1.10,2013-02-13 13:36:00,
2013-02-13 05:51:00,43.8,26.0,30.53,WNW,283,0.0,-999.0,50,-99.99,,,0.00,0,weatherlink.com 1.10,2013-02-13 13:51:00,
2013-02-13 06:07:00,44.2,25.0,30.53,WNW,283,0.0,-999.0,48,-99.99,,,0.00,0,weatherlink.com 1.10,2013-02-13 14:07:00,
2013-02-13 06:22:00,44.2,26.0,30.54,WNW,283,0.0,-999.0,49,-99.99,,,0.00,0,weatherlink.com 1.10,2013-02-13 14:22:00,
2013-02-13 06:37:00,44.0,25.0,30.54,WNW,283,0.0,-999.0,48,-99.99,,,0.00,9,weatherlink.com 1.10,2013-02-13 14:37:00,
2013-02-13 06:52:00,44.5,26.0,30.54,WNW,283,0.0,-999.0,48,-99.99,,,0.00,19,weatherlink.com 1.10,2013-02-13 14:52:00,
2013-02-13 07:07:00,44.9,27.0,30.55,WNW,283,0.0,-999.0,49,-99.99,,,0.00,54,weatherlink.com 1.10,2013-02-13 15:07:00,
2013-02-13 07:37:00,47.3,28.0,30.56,WNW,283,0.0,-999.0,48,-99.99,,,0.00,156,weatherlink.com 1.10,2013-02-13 15:37:00,
2013-02-13 07:52:00,49.2,29.0,30.56,WNW,283,0.0,-999.0,46,-99.99,,,0.00,214,weatherlink.com 1.10,2013-02-13 15:52:00,
2013-02-13 08:07:00,51.3,30.0,30.56,WNW,283,0.0,-999.0,44,-99.99,,,0.00,272,weatherlink.com 1.10,2013-02-13 16:07:00,
2013-02-13 08:22:00,52.4,30.0,30.56,WNW,283,0.0,-999.0,42,-99.99,,,0.00,320,weatherlink.com 1.10,2013-02-13 16:22:00,
2013-02-13 08:37:00,53.8,30.0,30.55,WNW,283,0.0,-999.0,40,-99.99,,,0.00,364,weatherlink.com 1.10,2013-02-13 16:37:00,
2013-02-13 08:52:00,55.6,30.0,30.56,WNW,283,0.0,-999.0,38,-99.99,,,0.00,408,weatherlink.com 1.10,2013-02-13 16:52:00,
2013-02-13 09:07:00,56.5,32.0,30.55,WNW,283,0.0,-999.0,39,-99.99,,,0.00,448,weatherlink.com 1.10,2013-02-13 17:07:00,
2013-02-13 09:22:00,59.0,31.0,30.55,WNW,283,0.0,-999.0,35,-99.99,,,0.00,489,weatherlink.com 1.10,2013-02-13 17:22:00,
2013-02-13 09:37:00,60.5,30.0,30.55,WNW,283,0.0,-999.0,31,-99.99,,,0.00,526,weatherlink.com 1.10,2013-02-13 17:37:00,
2013-02-13 09:52:00,61.6,31.0,30.55,WNW,283,0.0,-999.0,31,-99.99,,,0.00,559,weatherlink.com 1.10,2013-02-13 17:52:00,
2013-02-13 10:08:00,62.8,32.0,30.55,WNW,283,0.0,-999.0,32,-99.99,,,0.00,589,weatherlink.com 1.10,2013-02-13 18:08:00,
2013-02-13 10:23:00,64.0,31.0,30.54,WNW,283,0.0,-999.0,29,-99.99,,,0.00,617,weatherlink.com 1.10,2013-02-13 18:23:00,
2013-02-13 10:38:00,65.1,33.0,30.54,WNW,283,0.0,-999.0,30,-99.99,,,0.00,638,weatherlink.com 1.10,2013-02-13 18:38:00,
2013-02-13 10:53:00,66.5,30.0,30.54,WNW,283,0.0,-999.0,26,-99.99,,,0.00,656,weatherlink.com 1.10,2013-02-13 18:53:00,
2013-02-13 11:08:00,67.8,32.0,30.52,WNW,283,0.0,-999.0,26,-99.99,,,0.00,670,weatherlink.com 1.10,2013-02-13 19:08:00,
2013-02-13 11:23:00,69.1,31.0,30.52,WNW,283,0.0,-999.0,24,-99.99,,,0.00,680,weatherlink.com 1.10,2013-02-13 19:23:00,
2013-02-13 11:38:00,70.2,31.0,30.50,WNW,283,0.0,-999.0,23,-99.99,,,0.00,687,weatherlink.com 1.10,2013-02-13 19:38:00,
2013-02-13 11:53:00,70.0,30.0,30.49,West,275,0.0,-999.0,23,-99.99,,,0.00,691,weatherlink.com 1.10,2013-02-13 19:53:00,
2013-02-13 12:08:00,70.8,29.0,30.48,West,267,0.0,-999.0,21,-99.99,,,0.00,689,weatherlink.com 1.10,2013-02-13 20:08:00,
2013-02-13 12:23:00,71.5,29.0,30.47,West,261,0.0,-999.0,21,-99.99,,,0.00,682,weatherlink.com 1.10,2013-02-13 20:23:00,
2013-02-13 12:38:00,72.6,32.0,30.46,West,260,2.0,-999.0,22,-99.99,,,0.00,675,weatherlink.com 1.10,2013-02-13 20:38:00,
2013-02-13 12:53:00,74.0,29.0,30.45,West,260,0.0,-999.0,19,-99.99,,,0.00,663,weatherlink.com 1.10,2013-02-13 20:53:00,
2013-02-13 13:08:00,74.0,30.0,30.44,West,261,1.0,-999.0,20,-99.99,,,0.00,643,weatherlink.com 1.10,2013-02-13 21:08:00,
2013-02-13 13:23:00,75.1,29.0,30.43,West,261,0.0,-999.0,18,-99.99,,,0.00,622,weatherlink.com 1.10,2013-02-13 21:23:00,
2013-02-13 13:38:00,75.3,30.0,30.42,WSW,256,0.0,-999.0,19,-99.99,,,0.00,598,weatherlink.com 1.10,2013-02-13 21:38:00,
2013-02-13 13:53:00,75.1,30.0,30.42,SSE,168,2.0,-999.0,19,-99.99,,,0.00,570,weatherlink.com 1.10,2013-02-13 21:53:00,
2013-02-13 14:08:00,75.6,28.0,30.42,South,186,0.0,-999.0,17,-99.99,,,0.00,540,weatherlink.com 1.10,2013-02-13 22:08:00,
2013-02-13 14:23:00,76.3,28.0,30.41,South,184,0.0,-999.0,17,-99.99,,,0.00,504,weatherlink.com 1.10,2013-02-13 22:23:00,
2013-02-13 14:39:00,76.7,30.0,30.41,South,184,0.0,-999.0,18,-99.99,,,0.00,466,weatherlink.com 1.10,2013-02-13 22:39:00,
2013-02-13 14:54:00,76.3,31.0,30.40,South,169,0.0,-999.0,19,-99.99,,,0.00,425,weatherlink.com 1.10,2013-02-13 22:54:00,
2013-02-13 15:09:00,73.9,32.0,30.40,SSE,163,2.0,-999.0,21,-99.99,,,0.00,385,weatherlink.com 1.10,2013-02-13 23:09:00,
2013-02-13 15:24:00,72.6,32.0,30.40,SSE,150,4.0,-999.0,22,-99.99,,,0.00,341,weatherlink.com 1.10,2013-02-13 23:24:00,
2013-02-13 15:39:00,71.7,31.0,30.40,SSE,159,7.0,-999.0,22,-99.99,,,0.00,294,weatherlink.com 1.10,2013-02-13 23:39:00,
2013-02-13 15:54:00,71.1,31.0,30.40,SSE,152,2.0,-999.0,23,-99.99,,,0.00,246,weatherlink.com 1.10,2013-02-13 23:54:00,
2013-02-13 16:09:00,70.3,31.0,30.39,SE,142,4.0,-999.0,23,-99.99,,,0.00,193,weatherlink.com 1.10,2013-02-14 00:09:00,
2013-02-13 16:24:00,69.5,31.0,30.39,SSE,147,5.0,-999.0,24,-99.99,,,0.00,134,weatherlink.com 1.10,2013-02-14 00:24:00,
2013-02-13 16:39:00,68.9,31.0,30.39,SSE,155,1.0,-999.0,24,-99.99,,,0.00,84,weatherlink.com 1.10,2013-02-14 00:39:00,
2013-02-13 16:54:00,68.1,30.0,30.39,SE,133,2.0,-999.0,24,-99.99,,,0.00,40,weatherlink.com 1.10,2013-02-14 00:54:00,
2013-02-13 17:09:00,67.1,29.0,30.39,SE,130,1.0,-999.0,24,-99.99,,,0.00,14,weatherlink.com 1.10,2013-02-14 01:09:00,
2013-02-13 17:24:00,66.1,29.0,30.39,SE,130,0.0,-999.0,25,-99.99,,,0.00,7,weatherlink.com 1.10,2013-02-14 01:24:00,
2013-02-13 17:39:00,65.2,30.0,30.40,SE,130,0.0,-999.0,27,-99.99,,,0.00,0,weatherlink.com 1.10,2013-02-14 01:39:00,
2013-02-13 17:54:00,63.9,30.0,30.40,SE,130,1.0,-999.0,28,-99.99,,,0.00,0,weatherlink.com 1.10,2013-02-14 01:54:00,
2013-02-13 18:09:00,62.7,29.0,30.41,SE,130,0.0,-999.0,28,-99.99,,,0.00,0,weatherlink.com 1.10,2013-02-14 02:09:00,
2013-02-13 18:24:00,61.7,29.0,30.41,SE,130,0.0,-999.0,29,-99.99,,,0.00,0,weatherlink.com 1.10,2013-02-14 02:24:00,
2013-02-13 18:39:00,60.7,29.0,30.41,SE,130,0.0,-999.0,30,-99.99,,,0.00,0,weatherlink.com 1.10,2013-02-14 02:39:00,
2013-02-13 18:54:00,60.0,28.0,30.41,SE,130,0.0,-999.0,30,-99.99,,,0.00,0,weatherlink.com 1.10,2013-02-14 02:54:00,
2013-02-13 19:09:00,59.7,28.0,30.41,SE,130,0.0,-999.0,30,-99.99,,,0.00,0,weatherlink.com 1.10,2013-02-14 03:09:00,
2013-02-13 19:24:00,59.0,30.0,30.42,SE,130,0.0,-999.0,33,-99.99,,,0.00,0,weatherlink.com 1.10,2013-02-14 03:24:00,
2013-02-13 19:39:00,57.5,31.0,30.42,SE,130,0.0,-999.0,36,-99.99,,,0.00,0,weatherlink.com 1.10,2013-02-14 03:39:00,
2013-02-13 19:54:00,56.0,31.0,30.43,SE,130,0.0,-999.0,38,-99.99,,,0.00,0,weatherlink.com 1.10,2013-02-14 03:54:00,
2013-02-13 20:09:00,54.7,31.0,30.43,SE,130,0.0,-999.0,40,-99.99,,,0.00,0,weatherlink.com 1.10,2013-02-14 04:09:00,
2013-02-13 20:39:00,54.3,32.0,30.43,SE,130,0.0,-999.0,43,-99.99,,,0.00,0,weatherlink.com 1.10,2013-02-14 04:39:00,
2013-02-13 21:09:00,53.4,32.0,30.44,SE,130,0.0,-999.0,45,-99.99,,,0.00,0,weatherlink.com 1.10,2013-02-14 05:09:00,
2013-02-13 21:24:00,53.0,33.0,30.44,SE,130,0.0,-999.0,46,-99.99,,,0.00,0,weatherlink.com 1.10,2013-02-14 05:24:00,
2013-02-13 21:39:00,53.5,32.0,30.44,SE,130,0.0,-999.0,44,-99.99,,,0.00,0,weatherlink.com 1.10,2013-02-14 05:39:00,
2013-02-13 21:54:00,53.6,32.0,30.44,SE,130,0.0,-999.0,44,-99.99,,,0.00,0,weatherlink.com 1.10,2013-02-14 05:54:00,
2013-02-13 22:09:00,53.3,32.0,30.44,SE,130,0.0,-999.0,45,-99.99,,,0.00,0,weatherlink.com 1.10,2013-02-14 06:09:00,
2013-02-13 22:24:00,52.7,32.0,30.44,SE,130,0.0,-999.0,45,-99.99,,,0.00,0,weatherlink.com 1.10,2013-02-14 06:24:00,
2013-02-13 22:39:00,52.1,32.0,30.44,SE,130,0.0,-999.0,46,-99.99,,,0.00,0,weatherlink.com 1.10,2013-02-14 06:39:00,
2013-02-13 22:54:00,51.4,33.0,30.45,SE,130,0.0,-999.0,50,-99.99,,,0.00,0,weatherlink.com 1.10,2013-02-14 06:54:00,
2013-02-13 23:10:00,50.2,34.0,30.45,SE,130,0.0,-999.0,55,-99.99,,,0.00,0,weatherlink.com 1.10,2013-02-14 07:10:00,
2013-02-13 23:24:00,49.2,34.0,30.45,SE,130,0.0,-999.0,56,-99.99,,,0.00,0,weatherlink.com 1.10,2013-02-14 07:24:00,
2013-02-13 23:39:00,50.3,34.0,30.45,SE,130,0.0,-999.0,53,-99.99,,,0.00,0,weatherlink.com 1.10,2013-02-14 07:39:00,
2013-02-13 23:54:00,52.3,32.0,30.45,SE,130,0.0,-999.0,47,-99.99,,,0.00,0,weatherlink.com 1.10,2013-02-14 07:54:00,